Station Charts

 

Station Historical Data
Daily Summary for January 14, 2018 Units:  English    Metric   Both
Next Day »
Daily Weekly Monthly Yearly Custom
  High: Low: Average:
Temperature: 47.7 °F 38.7 °F 42.7 °F
Dew Point: 45.7 °F 36.8 °F 40.8 °F
Humidity: 93% 92% 93%
Wind Speed: 3.5mph 0.0mph 0mph
Wind Gust: 0.0mph - -
Wind- - East
Pressure: 30.13 in 29.95 in -
Precipitation: 0.00 in    
Historical Graphs
 
 
Tabular Data for January 14, 2018
Time Temperature Dew Point Pressure Wind Wind Speed Wind Gust Humidity Rainfall Rate (Hourly)
00:03 46.2 °F 44.3 °F 30.13 in Calm     93% 0.00 in
00:10 46.0 °F 44.1 °F 30.13 in Calm     93% 0.00 in
00:18 46.0 °F 44.1 °F 30.12 in Calm     93% 0.00 in
00:30 45.9 °F 44.0 °F 30.12 in Calm     93% 0.00 in
00:35 45.9 °F 44.0 °F 30.12 in Calm     93% 0.00 in
00:44 45.7 °F 43.8 °F 30.12 in Calm     93% 0.00 in
00:49 45.5 °F 43.6 °F 30.11 in Calm     93% 0.00 in
00:55 45.3 °F 43.4 °F 30.11 in Calm     93% 0.00 in
01:00 45.3 °F 43.4 °F 30.11 in Calm     93% 0.00 in
01:16 45.0 °F 43.1 °F 30.11 in Calm     93% 0.00 in
01:21 45.0 °F 43.1 °F 30.11 in Calm     93% 0.00 in
01:28 44.6 °F 42.7 °F 30.11 in Calm     93% 0.00 in
01:34 44.4 °F 42.5 °F 30.11 in Calm     93% 0.00 in
01:40 44.2 °F 42.3 °F 30.11 in Calm     93% 0.00 in
01:45 44.1 °F 42.2 °F 30.11 in Calm     93% 0.00 in
01:53 43.9 °F 42.0 °F 30.10 in Calm     93% 0.00 in
02:03 43.5 °F 41.6 °F 30.10 in Calm     93% 0.00 in
02:12 43.5 °F 41.6 °F 30.10 in Calm     93% 0.00 in
02:19 43.3 °F 41.5 °F 30.10 in Calm     93% 0.00 in
02:25 43.3 °F 41.5 °F 30.10 in Calm     93% 0.00 in
02:38 43.3 °F 41.5 °F 30.10 in Calm     93% 0.00 in
02:44 43.3 °F 41.5 °F 30.10 in Calm     93% 0.00 in
02:50 43.3 °F 41.5 °F 30.10 in Calm     93% 0.00 in
03:00 43.3 °F 41.5 °F 30.10 in Calm     93% 0.00 in
03:06 43.3 °F 41.5 °F 30.09 in Calm     93% 0.00 in
03:16 43.2 °F 41.3 °F 30.09 in Calm     93% 0.00 in
03:30 43.0 °F 41.1 °F 30.09 in Calm     93% 0.00 in
03:39 43.0 °F 41.1 °F 30.08 in Calm     93% 0.00 in
03:44 42.8 °F 40.9 °F 30.08 in Calm     93% 0.00 in
03:54 42.4 °F 40.6 °F 30.08 in Calm     93% 0.00 in
04:01 42.4 °F 40.6 °F 30.08 in Calm     93% 0.00 in
04:06 42.4 °F 40.6 °F 30.07 in Calm     93% 0.00 in
04:13 42.3 °F 40.4 °F 30.07 in Calm     93% 0.00 in
04:25 42.3 °F 40.4 °F 30.07 in Calm     93% 0.00 in
04:32 42.1 °F 40.2 °F 30.06 in Calm     93% 0.00 in
04:41 42.1 °F 40.2 °F 30.06 in Calm     93% 0.00 in
04:53 41.9 °F 40.0 °F 30.06 in Calm     93% 0.00 in
05:01 41.7 °F 39.8 °F 30.06 in Calm     93% 0.00 in
05:09 41.7 °F 39.8 °F 30.05 in Calm     93% 0.00 in
05:18 41.5 °F 39.7 °F 30.05 in Calm     93% 0.00 in
05:25 41.5 °F 39.7 °F 30.05 in Calm     93% 0.00 in
05:33 41.4 °F 39.5 °F 30.04 in Calm     93% 0.00 in
05:39 41.4 °F 39.5 °F 30.04 in Calm     93% 0.00 in
05:47 41.4 °F 39.5 °F 30.04 in Calm     93% 0.00 in
05:56 41.2 °F 39.3 °F 30.04 in Calm     93% 0.00 in
06:01 41.2 °F 39.3 °F 30.04 in Calm     93% 0.00 in
06:11 41.2 °F 39.3 °F 30.04 in Calm     93% 0.00 in
06:22 41.0 °F 39.1 °F 30.04 in Calm     93% 0.00 in
06:38 40.8 °F 39.0 °F 30.03 in Calm     93% 0.00 in
06:48 40.8 °F 39.0 °F 30.03 in Calm     93% 0.00 in
06:58 40.8 °F 39.0 °F 30.03 in Calm     93% 0.00 in
07:03 40.6 °F 38.8 °F 30.03 in Calm     93% 0.00 in
07:12 40.6 °F 38.8 °F 30.03 in Calm     93% 0.00 in
07:20 40.5 °F 38.6 °F 30.03 in Calm     93% 0.00 in
07:28 40.5 °F 38.6 °F 30.03 in Calm     93% 0.00 in
07:40 40.5 °F 38.6 °F 30.02 in Calm     93% 0.00 in
07:55 40.5 °F 38.6 °F 30.02 in Calm     93% 0.00 in
08:02 40.5 °F 38.6 °F 30.02 in Calm     93% 0.00 in
08:07 40.5 °F 38.6 °F 30.02 in Calm     93% 0.00 in
08:20 40.5 °F 38.6 °F 30.03 in Calm     93% 0.00 in
08:26 40.5 °F 38.6 °F 30.03 in Calm     93% 0.00 in
08:31 40.5 °F 38.6 °F 30.03 in Calm     93% 0.00 in
08:47 40.6 °F 38.8 °F 30.03 in Calm     93% 0.00 in
08:52 40.8 °F 39.0 °F 30.03 in Calm     93% 0.00 in
08:58 40.8 °F 39.0 °F 30.03 in Calm     93% 0.00 in
09:03 40.8 °F 39.0 °F 30.02 in Calm     93% 0.00 in
09:18 40.8 °F 39.0 °F 30.03 in Calm     93% 0.00 in
09:24 40.8 °F 39.0 °F 30.03 in Calm     93% 0.00 in
09:29 40.8 °F 39.0 °F 30.03 in Calm     93% 0.00 in
09:44 41.2 °F 39.3 °F 30.02 in Calm     93% 0.00 in
09:49 41.4 °F 39.5 °F 30.02 in Calm     93% 0.00 in
09:54 41.4 °F 39.5 °F 30.02 in Calm     93% 0.00 in
09:59 41.4 °F 39.5 °F 30.02 in Calm     93% 0.00 in
10:08 41.5 °F 39.7 °F 30.02 in Calm     93% 0.00 in
10:22 41.9 °F 40.0 °F 30.02 in Calm     93% 0.00 in
10:34 42.1 °F 40.2 °F 30.01 in Calm     93% 0.00 in
10:41 42.3 °F 40.4 °F 30.01 in Calm     93% 0.00 in
11:01 42.3 °F 40.4 °F 30.02 in Calm     93% 0.00 in
11:11 42.4 °F 40.6 °F 30.02 in Calm     93% 0.00 in
11:20 42.6 °F 40.7 °F 30.01 in Calm     93% 0.00 in
11:26 43.0 °F 41.1 °F 30.01 in Calm     93% 0.00 in
11:32 43.2 °F 41.3 °F 30.01 in Calm     93% 0.00 in
11:38 43.3 °F 41.5 °F 30.01 in Calm     93% 0.00 in
11:45 43.7 °F 41.8 °F 30.01 in Calm     93% 0.00 in
11:54 44.2 °F 42.3 °F 30.01 in Calm     93% 0.00 in
12:00 44.4 °F 42.5 °F 30.01 in Calm     93% 0.00 in
12:07 44.8 °F 42.9 °F 30.01 in Calm     93% 0.00 in
12:12 44.8 °F 42.9 °F 30.01 in Calm     93% 0.00 in
12:25 44.2 °F 42.3 °F 30.01 in Calm     93% 0.00 in
12:30 44.2 °F 42.3 °F 30.01 in Calm     93% 0.00 in
12:35 44.2 °F 42.3 °F 30.01 in Calm     93% 0.00 in
12:54 45.0 °F 43.1 °F 30.00 in Calm     93% 0.00 in
13:03 45.1 °F 43.2 °F 30.00 in Calm     93% 0.00 in
13:12 45.3 °F 43.4 °F 30.00 in NNE 3.5 mph   93% 0.00 in
13:17 45.5 °F 43.6 °F 29.99 in SSE 2.3 mph   93% 0.00 in
13:23 45.5 °F 43.6 °F 29.99 in Calm     93% 0.00 in
13:31 45.3 °F 43.4 °F 29.99 in Calm     93% 0.00 in
13:37 45.3 °F 43.4 °F 29.98 in Calm     93% 0.00 in
13:42 45.1 °F 43.2 °F 29.98 in Calm     93% 0.00 in
13:49 45.0 °F 43.1 °F 29.98 in Calm     93% 0.00 in
13:56 45.0 °F 43.1 °F 29.98 in Calm     93% 0.00 in
14:01 45.0 °F 43.1 °F 29.98 in Calm     93% 0.00 in
14:13 45.1 °F 43.2 °F 29.98 in Calm     93% 0.00 in
14:21 45.1 °F 43.2 °F 29.97 in Calm     93% 0.00 in
14:31 44.8 °F 42.9 °F 29.97 in Calm     93% 0.00 in
14:57 45.1 °F 43.2 °F 29.98 in Calm     93% 0.00 in
15:14 46.6 °F 44.7 °F 29.98 in Calm     93% 0.00 in
15:19 46.9 °F 45.0 °F 29.98 in Calm     93% 0.00 in
15:27 47.5 °F 45.6 °F 29.98 in Calm     93% 0.00 in
15:39 47.7 °F 45.7 °F 29.99 in Calm     93% 0.00 in
15:52 47.7 °F 45.7 °F 29.99 in Calm     93% 0.00 in
16:02 47.5 °F 45.6 °F 29.99 in Calm     93% 0.00 in
16:07 47.5 °F 45.6 °F 29.99 in Calm     93% 0.00 in
16:17 47.1 °F 44.9 °F 29.98 in Calm     92% 0.00 in
16:22 47.1 °F 44.9 °F 29.98 in Calm     92% 0.00 in
16:32 46.8 °F 44.8 °F 29.98 in Calm     93% 0.00 in
16:38 46.4 °F 44.2 °F 29.98 in Calm     92% 0.00 in
16:45 46.0 °F 44.1 °F 29.98 in Calm     93% 0.00 in
16:50 45.9 °F 44.0 °F 29.98 in Calm     93% 0.00 in
16:57 45.5 °F 43.6 °F 29.98 in Calm     93% 0.00 in
17:02 45.1 °F 43.2 °F 29.98 in Calm     93% 0.00 in
17:11 44.8 °F 42.9 °F 29.98 in Calm     93% 0.00 in
17:19 44.4 °F 42.5 °F 29.97 in Calm     93% 0.00 in
17:24 44.1 °F 42.2 °F 29.97 in Calm     93% 0.00 in
17:32 43.7 °F 41.8 °F 29.96 in Calm     93% 0.00 in
17:42 43.2 °F 41.0 °F 29.96 in Calm     92% 0.00 in
17:48 42.8 °F 40.9 °F 29.97 in Calm     93% 0.00 in
18:03 42.4 °F 40.6 °F 29.96 in Calm     93% 0.00 in
18:12 42.4 °F 40.6 °F 29.96 in Calm     93% 0.00 in
18:17 42.3 °F 40.4 °F 29.95 in Calm     93% 0.00 in
18:24 42.3 °F 40.4 °F 29.95 in Calm     93% 0.00 in
18:36 41.7 °F 39.8 °F 29.95 in Calm     93% 0.00 in
18:41 41.7 °F 39.8 °F 29.95 in Calm     93% 0.00 in
18:47 41.5 °F 39.7 °F 29.95 in Calm     93% 0.00 in
18:52 41.5 °F 39.7 °F 29.95 in Calm     93% 0.00 in
18:59 41.4 °F 39.5 °F 29.95 in Calm     93% 0.00 in
19:05 41.2 °F 39.3 °F 29.96 in Calm     93% 0.00 in
19:19 41.4 °F 39.5 °F 29.96 in Calm     93% 0.00 in
19:26 41.4 °F 39.5 °F 29.96 in Calm     93% 0.00 in
19:32 41.4 °F 39.5 °F 29.96 in Calm     93% 0.00 in
19:54 41.2 °F 39.3 °F 29.97 in Calm     93% 0.00 in
19:59 41.0 °F 39.1 °F 29.97 in Calm     93% 0.00 in
20:04 41.0 °F 39.1 °F 29.97 in Calm     93% 0.00 in
20:12 40.8 °F 39.0 °F 29.97 in Calm     93% 0.00 in
20:18 40.6 °F 38.8 °F 29.96 in Calm     93% 0.00 in
20:25 40.6 °F 38.8 °F 29.96 in Calm     93% 0.00 in
20:30 40.5 °F 38.6 °F 29.96 in Calm     93% 0.00 in
20:35 40.5 °F 38.6 °F 29.96 in Calm     93% 0.00 in
20:45 40.5 °F 38.6 °F 29.96 in Calm     93% 0.00 in
20:55 40.6 °F 38.8 °F 29.96 in Calm     93% 0.00 in
21:03 40.6 °F 38.8 °F 29.96 in Calm     93% 0.00 in
21:11 40.3 °F 38.4 °F 29.96 in Calm     93% 0.00 in
21:20 39.9 °F 38.1 °F 29.96 in Calm     93% 0.00 in
21:25 39.7 °F 37.9 °F 29.96 in Calm     93% 0.00 in
21:42 39.6 °F 37.7 °F 29.96 in Calm     93% 0.00 in
21:47 39.6 °F 37.7 °F 29.96 in Calm     93% 0.00 in
21:52 39.7 °F 37.9 °F 29.96 in Calm     93% 0.00 in
22:01 39.7 °F 37.9 °F 29.96 in Calm     93% 0.00 in
22:14 39.6 °F 37.7 °F 29.96 in Calm     93% 0.00 in
22:23 39.6 °F 37.7 °F 29.96 in Calm     93% 0.00 in
22:31 39.4 °F 37.5 °F 29.96 in Calm     93% 0.00 in
22:36 39.4 °F 37.5 °F 29.96 in Calm     93% 0.00 in
22:41 39.2 °F 37.3 °F 29.96 in Calm     93% 0.00 in
22:46 39.0 °F 37.2 °F 29.96 in Calm     93% 0.00 in
22:55 39.0 °F 37.2 °F 29.95 in Calm     93% 0.00 in
23:04 39.0 °F 37.2 °F 29.95 in Calm     93% 0.00 in
23:15 38.8 °F 37.0 °F 29.95 in Calm     93% 0.00 in
23:24 38.8 °F 37.0 °F 29.95 in Calm     93% 0.00 in
23:32 39.0 °F 37.2 °F 29.95 in Calm     93% 0.00 in
23:38 39.0 °F 37.2 °F 29.95 in Calm     93% 0.00 in
23:50 38.7 °F 36.8 °F 29.95 in Calm     93% 0.00 in
Amateur Radio Station WA6MVG